(°C)
17°
16°
15°
15°
14°
14°
13°
(°C)
15°
15°
15°
14°
14°
13°
11°
JJI
JJI
IJI
IJI
I
ISI
ISI
(km/h)
10-28
6-16
6-17
7-17
6-16
7-15
10-17
(mm)
0
0
0
0
0
0
0
(%)
12
18
13
14
19
24
19

Sun elevation

/ 7.2°
sun-icon
UV 4
05:40
20:09
Star mesec (313°)
04:14
15:51

METAR for 44.1°S 15.3°I (LDZD)

Vreme Conditions Temperatura/
Tačka rose
Vetar Vidljivost Prognoza Oblaci Pritisak Change Raw
VFR 17°C / 12°C 150º variable 130º to 190º 11kt >10km - Few Clouds 4500ft 1010 Becoming: Wind 120º 6kt. LDZD 071700Z 15011KT 130V190 9999 FEW045 BKN070 17/12 Q1010 BECMG 12006KT
VFR 17°C / 12°C 150º 13kt >10km - Few Clouds 4500ft 1010 Becoming: Wind 120º 6kt. LDZD 071630Z 15013KT 9999 FEW045 BKN070 17/12 Q1010 BECMG 12006KT
VFR 17°C / 12°C 150º 9kt >10km - Few Clouds 4500ft 1010 Becoming: Wind 120º 6kt. LDZD 071600Z 15009KT 9999 FEW045 BKN070 17/12 Q1010 BECMG 12006KT
VFR 17°C / 12°C 150º variable 120º to 190º 12kt >10km - Few Clouds 4500ft 1010 Becoming: Wind 120º 6kt. LDZD 071530Z 15012KT 120V190 9999 FEW045 BKN070 17/12 Q1010 BECMG 12006KT
VFR 17°C / 12°C 140º variable 110º to 170º 10kt >10km - Few Clouds 4500ft 1010 Becoming: Wind 120º 6kt. LDZD 071500Z 14010KT 110V170 9999 FEW045 BKN070 17/12 Q1010 BECMG 12006KT
VFR 18°C / 13°C 140º 8kt >10km - Few Clouds 4500ft 1010 No Significant change LDZD 071430Z 14008KT 9999 FEW045 BKN075 18/13 Q1010 NOSIG
VFR 18°C / 12°C 160º variable 120º to 190º 10kt >10km - Few Clouds 4500ft 1011 Temporary: Wind 190º 12kt. LDZD 071400Z 16010KT 120V190 9999 FEW045 BKN075 18/12 Q1011 TEMPO 19012KT
VFR 18°C / 13°C 160º variable 130º to 200º 12kt >10km - Few Clouds 4500ft 1011 Temporary: Wind 190º 12kt. LDZD 071330Z 16012KT 130V200 9999 FEW045 BKN075 18/13 Q1011 TEMPO 19012KT
VFR 18°C / 13°C 160º variable 120º to 180º 11kt >10km - Few Clouds 4500ft 1011 No Significant change LDZD 071300Z 16011KT 120V180 9999 FEW045 BKN075 18/13 Q1011 NOSIG
VFR 18°C / 13°C 160º variable 130º to 190º 12kt >10km - Scattered Clouds 5000ft 1011 No Significant change LDZD 071230Z 16012KT 130V190 9999 SCT050 18/13 Q1011 NOSIG
VFR 18°C / 12°C 160º 14kt >10km - Scattered Clouds 5000ft 1011 No Significant change LDZD 071200Z 16014KT 9999 SCT050 18/12 Q1011 NOSIG
VFR 18°C / 12°C 160º 17kt >10km - Scattered Clouds 5000ft 1011 No Significant change LDZD 071130Z 16017KT 9999 SCT050 18/12 Q1011 NOSIG
VFR 18°C / 13°C 160º 16kt >10km - Scattered Clouds 5000ft 1011 No Significant change LDZD 071100Z 16016KT 9999 SCT050 18/13 Q1011 NOSIG
VFR 18°C / 13°C 160º variable 130º to 190º 16kt >10km - Scattered Clouds 5000ft 1011 No Significant change LDZD 071030Z 16016KT 130V190 9999 SCT050 18/13 Q1011 NOSIG
VFR 18°C / 12°C 150º variable 120º to 190º 17kt >10km - Few Clouds 4500ft 1011 No Significant change LDZD 071000Z 15017KT 120V190 9999 FEW045 SCT050 18/12 Q1011 NOSIG
VFR 19°C / 13°C 160º variable 130º to 190º 15kt >10km - Few Clouds 4500ft 1011 No Significant change LDZD 070930Z 16015KT 130V190 9999 FEW045 SCT050 19/13 Q1011 NOSIG
VFR 19°C / 12°C 150º 14kt >10km - Few Clouds 4500ft 1011 No Significant change LDZD 070900Z 15014KT 9999 FEW045 SCT050 19/12 Q1011 NOSIG
VFR 19°C / 12°C 160º 15kt >10km - Few Clouds 4500ft 1011 No Significant change LDZD 070830Z 16015KT 9999 FEW045 19/12 Q1011 NOSIG
VFR 19°C / 13°C 140º variable 100º to 160º 13kt >10km - Few Clouds 4500ft 1011 No Significant change LDZD 070800Z 14013KT 100V160 9999 FEW045 19/13 Q1011 NOSIG
VFR 19°C / 13°C 140º variable 110º to 170º 12kt >10km - Few Clouds 4500ft 1011 No Significant change LDZD 070730Z 14012KT 110V170 9999 FEW045 19/13 Q1011 NOSIG
VFR 18°C / 12°C 170º variable 120º to 200º 13kt >10km - Few Clouds 4500ft 1011 No Significant change LDZD 070700Z 17013KT 120V200 9999 FEW045 18/12 Q1011 NOSIG
VFR 18°C / 13°C 160º 14kt >10km - Few Clouds 4500ft 1011 No Significant change LDZD 070630Z 16014KT 9999 FEW045 18/13 Q1011 NOSIG
VFR 17°C / 12°C 160º variable 130º to 190º 10kt >10km - Scattered Clouds 4500ft 1011 No Significant change LDZD 070600Z 16010KT 130V190 9999 SCT045 17/12 Q1011 NOSIG
VFR 17°C / 12°C 150º variable 110º to 200º 7kt >10km - Scattered Clouds 4500ft 1011 No Significant change LDZD 070530Z 15007KT 110V200 9999 SCT045 17/12 Q1011 NOSIG

VFR

17°C / 12°C

[Više]
Vetar 150º variable 130º to 190º 11kt
Vidljivost >10km
Prognoza -
Oblaci Few Clouds 4500ft
Pritisak 1010
Change Becoming: Wind 120º 6kt.
Raw LDZD 071700Z 15011KT 130V190 9999 FEW045 BKN070 17/12 Q1010 BECMG 12006KT

VFR

17°C / 12°C

[Više]
Vetar 150º 13kt
Vidljivost >10km
Prognoza -
Oblaci Few Clouds 4500ft
Pritisak 1010
Change Becoming: Wind 120º 6kt.
Raw LDZD 071630Z 15013KT 9999 FEW045 BKN070 17/12 Q1010 BECMG 12006KT

VFR

17°C / 12°C

[Više]
Vetar 150º 9kt
Vidljivost >10km
Prognoza -
Oblaci Few Clouds 4500ft
Pritisak 1010
Change Becoming: Wind 120º 6kt.
Raw LDZD 071600Z 15009KT 9999 FEW045 BKN070 17/12 Q1010 BECMG 12006KT

VFR

17°C / 12°C

[Više]
Vetar 150º variable 120º to 190º 12kt
Vidljivost >10km
Prognoza -
Oblaci Few Clouds 4500ft
Pritisak 1010
Change Becoming: Wind 120º 6kt.
Raw LDZD 071530Z 15012KT 120V190 9999 FEW045 BKN070 17/12 Q1010 BECMG 12006KT

VFR

17°C / 12°C

[Više]
Vetar 140º variable 110º to 170º 10kt
Vidljivost >10km
Prognoza -
Oblaci Few Clouds 4500ft
Pritisak 1010
Change Becoming: Wind 120º 6kt.
Raw LDZD 071500Z 14010KT 110V170 9999 FEW045 BKN070 17/12 Q1010 BECMG 12006KT

VFR

18°C / 13°C

[Više]
Vetar 140º 8kt
Vidljivost >10km
Prognoza -
Oblaci Few Clouds 4500ft
Pritisak 1010
Change No Significant change
Raw LDZD 071430Z 14008KT 9999 FEW045 BKN075 18/13 Q1010 NOSIG

VFR

18°C / 12°C

[Više]
Vetar 160º variable 120º to 190º 10kt
Vidljivost >10km
Prognoza -
Oblaci Few Clouds 4500ft
Pritisak 1011
Change Temporary: Wind 190º 12kt.
Raw LDZD 071400Z 16010KT 120V190 9999 FEW045 BKN075 18/12 Q1011 TEMPO 19012KT

VFR

18°C / 13°C

[Više]
Vetar 160º variable 130º to 200º 12kt
Vidljivost >10km
Prognoza -
Oblaci Few Clouds 4500ft
Pritisak 1011
Change Temporary: Wind 190º 12kt.
Raw LDZD 071330Z 16012KT 130V200 9999 FEW045 BKN075 18/13 Q1011 TEMPO 19012KT

VFR

18°C / 13°C

[Više]
Vetar 160º variable 120º to 180º 11kt
Vidljivost >10km
Prognoza -
Oblaci Few Clouds 4500ft
Pritisak 1011
Change No Significant change
Raw LDZD 071300Z 16011KT 120V180 9999 FEW045 BKN075 18/13 Q1011 NOSIG

VFR

18°C / 13°C

[Više]
Vetar 160º variable 130º to 190º 12kt
Vidljivost >10km
Prognoza -
Oblaci Scattered Clouds 5000ft
Pritisak 1011
Change No Significant change
Raw LDZD 071230Z 16012KT 130V190 9999 SCT050 18/13 Q1011 NOSIG

VFR

18°C / 12°C

[Više]
Vetar 160º 14kt
Vidljivost >10km
Prognoza -
Oblaci Scattered Clouds 5000ft
Pritisak 1011
Change No Significant change
Raw LDZD 071200Z 16014KT 9999 SCT050 18/12 Q1011 NOSIG

VFR

18°C / 12°C

[Više]
Vetar 160º 17kt
Vidljivost >10km
Prognoza -
Oblaci Scattered Clouds 5000ft
Pritisak 1011
Change No Significant change
Raw LDZD 071130Z 16017KT 9999 SCT050 18/12 Q1011 NOSIG

VFR

18°C / 13°C

[Više]
Vetar 160º 16kt
Vidljivost >10km
Prognoza -
Oblaci Scattered Clouds 5000ft
Pritisak 1011
Change No Significant change
Raw LDZD 071100Z 16016KT 9999 SCT050 18/13 Q1011 NOSIG

VFR

18°C / 13°C

[Više]
Vetar 160º variable 130º to 190º 16kt
Vidljivost >10km
Prognoza -
Oblaci Scattered Clouds 5000ft
Pritisak 1011
Change No Significant change
Raw LDZD 071030Z 16016KT 130V190 9999 SCT050 18/13 Q1011 NOSIG

VFR

18°C / 12°C

[Više]
Vetar 150º variable 120º to 190º 17kt
Vidljivost >10km
Prognoza -
Oblaci Few Clouds 4500ft
Pritisak 1011
Change No Significant change
Raw LDZD 071000Z 15017KT 120V190 9999 FEW045 SCT050 18/12 Q1011 NOSIG

VFR

19°C / 13°C

[Više]
Vetar 160º variable 130º to 190º 15kt
Vidljivost >10km
Prognoza -
Oblaci Few Clouds 4500ft
Pritisak 1011
Change No Significant change
Raw LDZD 070930Z 16015KT 130V190 9999 FEW045 SCT050 19/13 Q1011 NOSIG

VFR

19°C / 12°C

[Više]
Vetar 150º 14kt
Vidljivost >10km
Prognoza -
Oblaci Few Clouds 4500ft
Pritisak 1011
Change No Significant change
Raw LDZD 070900Z 15014KT 9999 FEW045 SCT050 19/12 Q1011 NOSIG

VFR

19°C / 12°C

[Više]
Vetar 160º 15kt
Vidljivost >10km
Prognoza -
Oblaci Few Clouds 4500ft
Pritisak 1011
Change No Significant change
Raw LDZD 070830Z 16015KT 9999 FEW045 19/12 Q1011 NOSIG

VFR

19°C / 13°C

[Više]
Vetar 140º variable 100º to 160º 13kt
Vidljivost >10km
Prognoza -
Oblaci Few Clouds 4500ft
Pritisak 1011
Change No Significant change
Raw LDZD 070800Z 14013KT 100V160 9999 FEW045 19/13 Q1011 NOSIG

VFR

19°C / 13°C

[Više]
Vetar 140º variable 110º to 170º 12kt
Vidljivost >10km
Prognoza -
Oblaci Few Clouds 4500ft
Pritisak 1011
Change No Significant change
Raw LDZD 070730Z 14012KT 110V170 9999 FEW045 19/13 Q1011 NOSIG

VFR

18°C / 12°C

[Više]
Vetar 170º variable 120º to 200º 13kt
Vidljivost >10km
Prognoza -
Oblaci Few Clouds 4500ft
Pritisak 1011
Change No Significant change
Raw LDZD 070700Z 17013KT 120V200 9999 FEW045 18/12 Q1011 NOSIG

VFR

18°C / 13°C

[Više]
Vetar 160º 14kt
Vidljivost >10km
Prognoza -
Oblaci Few Clouds 4500ft
Pritisak 1011
Change No Significant change
Raw LDZD 070630Z 16014KT 9999 FEW045 18/13 Q1011 NOSIG

VFR

17°C / 12°C

[Više]
Vetar 160º variable 130º to 190º 10kt
Vidljivost >10km
Prognoza -
Oblaci Scattered Clouds 4500ft
Pritisak 1011
Change No Significant change
Raw LDZD 070600Z 16010KT 130V190 9999 SCT045 17/12 Q1011 NOSIG

VFR

17°C / 12°C

[Više]
Vetar 150º variable 110º to 200º 7kt
Vidljivost >10km
Prognoza -
Oblaci Scattered Clouds 4500ft
Pritisak 1011
Change No Significant change
Raw LDZD 070530Z 15007KT 110V200 9999 SCT045 17/12 Q1011 NOSIG

TAF for 44.1°S 15.3°I (LDZD)

From till


Maximum Temperature 21ºC on . Minimum Temperature 11ºC on .
From till Wind 170º 12kt. Visibility 10km or more. Broken Clouds 6000ft.
With 40% probability, from till Wind 190º 12kt.
Becoming from till Wind 170º 6kt. Visibility 10km or more. Broken Clouds 6000ft.
With 40% probability, Temporarly from till Rain .
With 30% probability, Temporarly from till Visibility 4000m. Showers Rain . Few Clouds 3000ft. Broken Clouds 3500ft.
Becoming from till Wind 70º 12kt. Visibility 10km or more. Broken Clouds 6000ft.
Becoming from till Wind 340º 6kt. Visibility 10km or more. Broken Clouds 6000ft.

Raw: TAF LDZD 071125Z 0712/0812 17012KT 9999 BKN060 TX21/0811Z TN11/0804Z PROB40 0712/0715 19012KT BECMG 0715/0717 17006KT PROB40 TEMPO 0718/0723 RA PROB30 TEMPO 0719/0722 4000 SHRA FEW030TCU BKN035 BECMG 0722/0800 07012KT BECMG 0807/0809 34006KT

Current satellite and rain images for 44.1°S 15.3°I

  • Padavine:
  • <1 mm
  • 1-2 mm
  • 2-5 mm
  • >5 mm

Marker lokacije postavljen je na 44.1°S 15.3°I. [Više]

The real-time satellite image combines visible light during daytime with infrared radiation during nighttime. At night, the image is not dark as infrared radiation can detect temperature differences. Unfortunately, low clouds and fog are difficult to distinguish from ground temperatures and thus can be almost invisible during the night. Meteosat satellite images for Europe are updated in real-time every 5 minutes. GOES-16/GOES-17 (North & South America) and Himawari (Asia) images update every 10 minutes.

Padavine su procenjene na osnovu radara i satelita. U noćnim uslovima satelitske procene padavina su manje precizne od dnevnih. Narandžasti preseci obeležavaju mesta gde je munja otkrivena (preko Evropa).

Autorsko pravo 2021 EUMETSAT / meteoblue. Podaci za munje obezbeđeni od nowcast.